sensor_id;sensor_type;location;lat;lon;timestamp;pressure;altitude;pressure_sealevel;temperature;humidity
4705;BME280;2366;51.332;6.610;2024-02-26T00:01:26;99671.69;;;11.88;50.69
4705;BME280;2366;51.332;6.610;2024-02-26T00:03:51;99671.16;;;11.95;50.15
4705;BME280;2366;51.332;6.610;2024-02-26T00:06:17;99678.84;;;12.09;49.83
4705;BME280;2366;51.332;6.610;2024-02-26T00:08:43;99658.09;;;12.03;49.94
4705;BME280;2366;51.332;6.610;2024-02-26T00:11:09;99669.72;;;11.90;50.87
4705;BME280;2366;51.332;6.610;2024-02-26T00:13:35;99678.69;;;11.89;50.74
4705;BME280;2366;51.332;6.610;2024-02-26T00:16:01;99691.59;;;11.83;51.01
4705;BME280;2366;51.332;6.610;2024-02-26T00:18:26;99683.00;;;11.90;50.69
4705;BME280;2366;51.332;6.610;2024-02-26T00:20:52;99682.72;;;12.05;50.45
4705;BME280;2366;51.332;6.610;2024-02-26T00:23:17;99689.91;;;12.14;50.68
4705;BME280;2366;51.332;6.610;2024-02-26T00:25:43;99689.97;;;12.03;50.85
4705;BME280;2366;51.332;6.610;2024-02-26T00:28:09;99687.97;;;12.16;50.52
4705;BME280;2366;51.332;6.610;2024-02-26T00:30:35;99676.81;;;12.22;50.45
4705;BME280;2366;51.332;6.610;2024-02-26T00:33:00;99689.28;;;12.22;50.77
4705;BME280;2366;51.332;6.610;2024-02-26T00:35:26;99689.97;;;12.03;51.06
4705;BME280;2366;51.332;6.610;2024-02-26T00:37:51;99699.81;;;12.12;50.62
4705;BME280;2366;51.332;6.610;2024-02-26T00:40:16;99690.28;;;12.09;50.49
4705;BME280;2366;51.332;6.610;2024-02-26T00:42:42;99689.72;;;12.06;50.80
4705;BME280;2366;51.332;6.610;2024-02-26T00:45:11;99678.94;;;12.07;50.90
4705;BME280;2366;51.332;6.610;2024-02-26T00:47:37;99683.69;;;12.04;51.15
4705;BME280;2366;51.332;6.610;2024-02-26T00:50:03;99678.38;;;12.04;51.45
4705;BME280;2366;51.332;6.610;2024-02-26T00:52:29;99678.50;;;12.02;51.10
4705;BME280;2366;51.332;6.610;2024-02-26T00:54:54;99682.53;;;11.85;51.57
4705;BME280;2366;51.332;6.610;2024-02-26T00:57:19;99681.06;;;11.92;51.87
4705;BME280;2366;51.332;6.610;2024-02-26T00:59:45;99675.91;;;11.91;51.89
4705;BME280;2366;51.332;6.610;2024-02-26T01:02:10;99670.63;;;11.80;51.83
4705;BME280;2366;51.332;6.610;2024-02-26T01:04:35;99678.91;;;11.86;51.91
4705;BME280;2366;51.332;6.610;2024-02-26T01:07:01;99683.16;;;11.89;52.04
4705;BME280;2366;51.332;6.610;2024-02-26T01:09:26;99683.72;;;11.92;51.88
4705;BME280;2366;51.332;6.610;2024-02-26T01:11:52;99682.31;;;11.88;52.06
4705;BME280;2366;51.332;6.610;2024-02-26T01:14:17;99689.88;;;11.82;51.87
4705;BME280;2366;51.332;6.610;2024-02-26T01:16:42;99684.00;;;11.78;52.28
4705;BME280;2366;51.332;6.610;2024-02-26T01:19:08;99682.19;;;11.79;52.68
4705;BME280;2366;51.332;6.610;2024-02-26T01:21:33;99692.81;;;11.79;52.54
4705;BME280;2366;51.332;6.610;2024-02-26T01:23:59;99691.59;;;11.83;52.52
4705;BME280;2366;51.332;6.610;2024-02-26T01:26:24;99686.19;;;11.73;52.70
4705;BME280;2366;51.332;6.610;2024-02-26T01:28:49;99689.31;;;11.78;52.51
4705;BME280;2366;51.332;6.610;2024-02-26T01:31:15;99687.16;;;11.72;52.86
4705;BME280;2366;51.332;6.610;2024-02-26T01:33:40;99693.63;;;11.47;53.72
4705;BME280;2366;51.332;6.610;2024-02-26T01:36:05;99685.28;;;11.63;53.33
4705;BME280;2366;51.332;6.610;2024-02-26T01:38:31;99698.06;;;11.58;53.67
4705;BME280;2366;51.332;6.610;2024-02-26T01:40:57;99675.72;;;11.28;55.46
4705;BME280;2366;51.332;6.610;2024-02-26T01:43:22;99682.44;;;11.21;55.60
4705;BME280;2366;51.332;6.610;2024-02-26T01:45:48;99678.84;;;10.99;56.02
4705;BME280;2366;51.332;6.610;2024-02-26T01:48:13;99677.44;;;11.06;56.08
4705;BME280;2366;51.332;6.610;2024-02-26T01:50:40;99682.47;;;11.09;57.38
4705;BME280;2366;51.332;6.610;2024-02-26T01:53:06;99683.22;;;11.00;56.51
4705;BME280;2366;51.332;6.610;2024-02-26T01:55:33;99683.69;;;10.83;57.04
4705;BME280;2366;51.332;6.610;2024-02-26T01:57:58;99690.56;;;10.97;57.31
4705;BME280;2366;51.332;6.610;2024-02-26T02:00:24;99687.78;;;10.98;56.85
4705;BME280;2366;51.332;6.610;2024-02-26T02:02:50;99691.66;;;10.94;57.64
4705;BME280;2366;51.332;6.610;2024-02-26T02:05:16;99694.03;;;10.97;57.17
4705;BME280;2366;51.332;6.610;2024-02-26T02:07:45;99685.41;;;10.95;57.86
4705;BME280;2366;51.332;6.610;2024-02-26T02:10:11;99682.97;;;10.92;57.96
4705;BME280;2366;51.332;6.610;2024-02-26T02:12:37;99696.94;;;10.72;59.02
4705;BME280;2366;51.332;6.610;2024-02-26T02:15:05;99693.56;;;10.69;60.52
4705;BME280;2366;51.332;6.610;2024-02-26T02:17:31;99701.03;;;10.64;65.18
4705;BME280;2366;51.332;6.610;2024-02-26T02:19:57;99695.81;;;10.40;69.39
4705;BME280;2366;51.332;6.610;2024-02-26T02:22:22;99700.06;;;10.19;70.18
4705;BME280;2366;51.332;6.610;2024-02-26T02:24:52;99702.84;;;10.17;71.41
4705;BME280;2366;51.332;6.610;2024-02-26T02:27:18;99706.00;;;9.98;71.91
4705;BME280;2366;51.332;6.610;2024-02-26T02:29:44;99703.72;;;9.94;72.61
4705;BME280;2366;51.332;6.610;2024-02-26T02:32:10;99703.78;;;9.57;73.31
4705;BME280;2366;51.332;6.610;2024-02-26T02:34:35;99699.22;;;9.59;74.08
4705;BME280;2366;51.332;6.610;2024-02-26T02:37:01;99708.03;;;9.46;74.58
4705;BME280;2366;51.332;6.610;2024-02-26T02:39:26;99707.16;;;9.59;75.63
4705;BME280;2366;51.332;6.610;2024-02-26T02:41:52;99703.78;;;9.57;75.59
4705;BME280;2366;51.332;6.610;2024-02-26T02:44:17;99705.66;;;9.68;75.84
4705;BME280;2366;51.332;6.610;2024-02-26T02:46:43;99706.13;;;9.49;76.41
4705;BME280;2366;51.332;6.610;2024-02-26T02:49:09;99699.56;;;9.54;75.25
4705;BME280;2366;51.332;6.610;2024-02-26T02:51:35;99701.25;;;9.55;75.45
4705;BME280;2366;51.332;6.610;2024-02-26T02:54:01;99694.56;;;9.50;76.20
4705;BME280;2366;51.332;6.610;2024-02-26T02:56:26;99683.94;;;9.38;76.36
4705;BME280;2366;51.332;6.610;2024-02-26T02:58:52;99682.66;;;9.44;76.54
4705;BME280;2366;51.332;6.610;2024-02-26T03:01:17;99691.19;;;9.48;76.88
4705;BME280;2366;51.332;6.610;2024-02-26T03:03:42;99676.00;;;9.38;76.91
4705;BME280;2366;51.332;6.610;2024-02-26T03:06:08;99691.50;;;9.19;77.07
4705;BME280;2366;51.332;6.610;2024-02-26T03:08:33;99704.97;;;9.03;77.11
4705;BME280;2366;51.332;6.610;2024-02-26T03:11:03;99695.94;;;9.31;77.52
4705;BME280;2366;51.332;6.610;2024-02-26T03:13:29;99690.63;;;9.31;77.51
4705;BME280;2366;51.332;6.610;2024-02-26T03:15:54;99697.00;;;9.29;77.29
4705;BME280;2366;51.332;6.610;2024-02-26T03:18:19;99690.69;;;9.42;78.26
4705;BME280;2366;51.332;6.610;2024-02-26T03:20:45;99689.41;;;9.48;78.20
4705;BME280;2366;51.332;6.610;2024-02-26T03:23:11;99694.72;;;9.72;77.82
4705;BME280;2366;51.332;6.610;2024-02-26T03:25:38;99690.16;;;9.74;77.74
4705;BME280;2366;51.332;6.610;2024-02-26T03:28:04;99693.28;;;9.79;77.90
4705;BME280;2366;51.332;6.610;2024-02-26T03:30:29;99696.22;;;9.63;77.94
4705;BME280;2366;51.332;6.610;2024-02-26T03:32:54;99696.78;;;9.56;77.63
4705;BME280;2366;51.332;6.610;2024-02-26T03:35:20;99694.72;;;9.48;77.69
4705;BME280;2366;51.332;6.610;2024-02-26T03:37:46;99694.66;;;9.61;77.86
4705;BME280;2366;51.332;6.610;2024-02-26T03:40:15;99696.34;;;9.62;78.05
4705;BME280;2366;51.332;6.610;2024-02-26T03:42:40;99700.00;;;9.48;77.72
4705;BME280;2366;51.332;6.610;2024-02-26T03:45:06;99697.06;;;9.64;78.32
4705;BME280;2366;51.332;6.610;2024-02-26T03:47:31;99700.44;;;9.66;77.96
4705;BME280;2366;51.332;6.610;2024-02-26T03:49:57;99689.75;;;9.68;78.07
4705;BME280;2366;51.332;6.610;2024-02-26T03:52:24;99690.03;;;9.52;78.38
4705;BME280;2366;51.332;6.610;2024-02-26T03:54:49;99692.06;;;9.48;78.47
4705;BME280;2366;51.332;6.610;2024-02-26T03:57:15;99691.72;;;9.53;77.40
4705;BME280;2366;51.332;6.610;2024-02-26T03:59:40;99690.50;;;9.45;78.17
4705;BME280;2366;51.332;6.610;2024-02-26T04:02:06;99690.94;;;9.39;78.35
4705;BME280;2366;51.332;6.610;2024-02-26T04:04:34;99699.13;;;9.48;78.45
4705;BME280;2366;51.332;6.610;2024-02-26T04:06:59;99692.59;;;9.40;78.20
4705;BME280;2366;51.332;6.610;2024-02-26T04:09:24;99686.09;;;9.33;78.00
4705;BME280;2366;51.332;6.610;2024-02-26T04:11:50;99687.19;;;9.18;79.05
4705;BME280;2366;51.332;6.610;2024-02-26T04:14:15;99685.63;;;9.39;78.53
4705;BME280;2366;51.332;6.610;2024-02-26T04:16:41;99689.53;;;9.46;78.30
4705;BME280;2366;51.332;6.610;2024-02-26T04:19:07;99689.69;;;9.19;78.36
4705;BME280;2366;51.332;6.610;2024-02-26T04:21:34;99688.00;;;9.31;77.85
4705;BME280;2366;51.332;6.610;2024-02-26T04:24:00;99693.06;;;9.21;78.70
4705;BME280;2366;51.332;6.610;2024-02-26T04:26:27;99695.63;;;9.23;78.16
4705;BME280;2366;51.332;6.610;2024-02-26T04:28:53;99704.84;;;9.17;78.00
4705;BME280;2366;51.332;6.610;2024-02-26T04:31:19;99717.59;;;9.36;78.31
4705;BME280;2366;51.332;6.610;2024-02-26T04:33:44;99705.16;;;9.13;79.18
4705;BME280;2366;51.332;6.610;2024-02-26T04:36:14;99717.22;;;9.04;77.87
4705;BME280;2366;51.332;6.610;2024-02-26T04:38:40;99716.19;;;9.07;79.16
4705;BME280;2366;51.332;6.610;2024-02-26T04:41:06;99719.69;;;9.07;78.84
4705;BME280;2366;51.332;6.610;2024-02-26T04:43:31;99728.13;;;9.12;78.92
4705;BME280;2366;51.332;6.610;2024-02-26T04:45:57;99723.69;;;9.00;78.70
4705;BME280;2366;51.332;6.610;2024-02-26T04:48:22;99721.69;;;9.03;79.37
4705;BME280;2366;51.332;6.610;2024-02-26T04:50:48;99727.63;;;9.07;79.20
4705;BME280;2366;51.332;6.610;2024-02-26T04:53:14;99720.63;;;9.06;79.43
4705;BME280;2366;51.332;6.610;2024-02-26T04:55:40;99727.19;;;9.13;79.05
4705;BME280;2366;51.332;6.610;2024-02-26T04:58:05;99716.63;;;9.00;79.54
4705;BME280;2366;51.332;6.610;2024-02-26T05:00:30;99721.25;;;9.10;78.92
4705;BME280;2366;51.332;6.610;2024-02-26T05:02:56;99726.88;;;8.92;79.04
4705;BME280;2366;51.332;6.610;2024-02-26T05:05:21;99726.44;;;9.11;79.86
4705;BME280;2366;51.332;6.610;2024-02-26T05:07:47;99722.00;;;9.12;78.58
4705;BME280;2366;51.332;6.610;2024-02-26T05:10:12;99724.81;;;9.21;79.31
4705;BME280;2366;51.332;6.610;2024-02-26T05:12:38;99732.25;;;9.03;79.07
4705;BME280;2366;51.332;6.610;2024-02-26T05:15:04;99733.66;;;8.83;79.20
4705;BME280;2366;51.332;6.610;2024-02-26T05:17:29;99727.13;;;8.89;79.44
4705;BME280;2366;51.332;6.610;2024-02-26T05:19:55;99723.59;;;9.01;79.43
4705;BME280;2366;51.332;6.610;2024-02-26T05:22:20;99726.88;;;8.92;79.48
4705;BME280;2366;51.332;6.610;2024-02-26T05:24:46;99724.66;;;8.99;78.70
4705;BME280;2366;51.332;6.610;2024-02-26T05:27:11;99735.97;;;8.88;79.37
4705;BME280;2366;51.332;6.610;2024-02-26T05:29:41;99728.78;;;9.03;78.94
4705;BME280;2366;51.332;6.610;2024-02-26T05:32:06;99737.88;;;8.86;79.51
4705;BME280;2366;51.332;6.610;2024-02-26T05:34:32;99734.91;;;8.78;79.39
4705;BME280;2366;51.332;6.610;2024-02-26T05:36:58;99744.75;;;8.89;79.45
4705;BME280;2366;51.332;6.610;2024-02-26T05:39:24;99741.91;;;8.79;79.66
4705;BME280;2366;51.332;6.610;2024-02-26T05:41:49;99747.38;;;9.01;79.84
4705;BME280;2366;51.332;6.610;2024-02-26T05:44:14;99747.28;;;8.77;79.69
4705;BME280;2366;51.332;6.610;2024-02-26T05:46:41;99750.34;;;8.84;80.31
4705;BME280;2366;51.332;6.610;2024-02-26T05:49:07;99763.16;;;8.77;79.68
4705;BME280;2366;51.332;6.610;2024-02-26T05:51:32;99756.16;;;9.02;79.89
4705;BME280;2366;51.332;6.610;2024-02-26T05:53:58;99746.63;;;9.12;79.49
4705;BME280;2366;51.332;6.610;2024-02-26T05:56:23;99757.13;;;8.88;79.44
4705;BME280;2366;51.332;6.610;2024-02-26T05:58:49;99760.50;;;8.90;80.03
4705;BME280;2366;51.332;6.610;2024-02-26T06:01:17;99764.63;;;8.94;79.70
4705;BME280;2366;51.332;6.610;2024-02-26T06:03:43;99765.88;;;9.01;79.95
4705;BME280;2366;51.332;6.610;2024-02-26T06:06:10;99773.63;;;9.04;79.59
4705;BME280;2366;51.332;6.610;2024-02-26T06:08:35;99780.91;;;9.01;79.59
4705;BME280;2366;51.332;6.610;2024-02-26T06:11:05;99777.50;;;9.24;79.38
4705;BME280;2366;51.332;6.610;2024-02-26T06:13:31;99798.47;;;8.89;79.37
4705;BME280;2366;51.332;6.610;2024-02-26T06:15:57;99786.09;;;9.02;80.04
4705;BME280;2366;51.332;6.610;2024-02-26T06:18:22;99786.84;;;8.92;79.94
4705;BME280;2366;51.332;6.610;2024-02-26T06:20:47;99790.84;;;9.10;79.68
4705;BME280;2366;51.332;6.610;2024-02-26T06:23:13;99784.50;;;9.13;79.27
4705;BME280;2366;51.332;6.610;2024-02-26T06:25:38;99789.59;;;8.90;79.98
4705;BME280;2366;51.332;6.610;2024-02-26T06:28:04;99788.34;;;8.96;79.27
4705;BME280;2366;51.332;6.610;2024-02-26T06:30:30;99799.50;;;8.99;80.02
4705;BME280;2366;51.332;6.610;2024-02-26T06:32:55;99804.81;;;8.99;79.75
4705;BME280;2366;51.332;6.610;2024-02-26T06:35:20;99802.25;;;9.23;79.24
4705;BME280;2366;51.332;6.610;2024-02-26T06:37:46;99808.91;;;9.29;78.79
4705;BME280;2366;51.332;6.610;2024-02-26T06:40:11;99810.94;;;9.13;79.42
4705;BME280;2366;51.332;6.610;2024-02-26T06:42:39;99805.13;;;9.33;79.34
4705;BME280;2366;51.332;6.610;2024-02-26T06:45:05;99805.78;;;9.11;78.56
4705;BME280;2366;51.332;6.610;2024-02-26T06:47:32;99814.84;;;8.94;79.64
4705;BME280;2366;51.332;6.610;2024-02-26T06:49:58;99817.41;;;9.09;79.00
4705;BME280;2366;51.332;6.610;2024-02-26T06:52:23;99807.53;;;9.11;79.69
4705;BME280;2366;51.332;6.610;2024-02-26T06:54:50;99814.31;;;9.40;79.55
4705;BME280;2366;51.332;6.610;2024-02-26T06:57:18;99824.28;;;9.24;79.27
4705;BME280;2366;51.332;6.610;2024-02-26T06:59:43;99824.28;;;9.24;79.48
4705;BME280;2366;51.332;6.610;2024-02-26T07:02:12;99819.41;;;9.18;79.51
4705;BME280;2366;51.332;6.610;2024-02-26T07:04:38;99825.53;;;9.18;79.37
4705;BME280;2366;51.332;6.610;2024-02-26T07:07:03;99836.31;;;9.28;79.52
4705;BME280;2366;51.332;6.610;2024-02-26T07:09:28;99828.69;;;9.36;79.25
4705;BME280;2366;51.332;6.610;2024-02-26T07:11:54;99841.59;;;9.41;79.13
4705;BME280;2366;51.332;6.610;2024-02-26T07:14:19;99839.03;;;9.65;78.92
4705;BME280;2366;51.332;6.610;2024-02-26T07:16:45;99846.88;;;9.28;79.08
4705;BME280;2366;51.332;6.610;2024-02-26T07:19:10;99850.16;;;9.57;79.36
4705;BME280;2366;51.332;6.610;2024-02-26T07:21:35;99849.97;;;9.84;78.83
4705;BME280;2366;51.332;6.610;2024-02-26T07:24:01;99857.41;;;9.79;78.43
4705;BME280;2366;51.332;6.610;2024-02-26T07:26:26;99863.75;;;9.90;78.41
4705;BME280;2366;51.332;6.610;2024-02-26T07:28:52;99843.25;;;9.80;78.66
4705;BME280;2366;51.332;6.610;2024-02-26T07:31:17;99848.44;;;9.56;78.71
4705;BME280;2366;51.332;6.610;2024-02-26T07:33:43;99852.06;;;9.55;79.41
4705;BME280;2366;51.332;6.610;2024-02-26T07:36:08;99860.53;;;9.48;79.79
4705;BME280;2366;51.332;6.610;2024-02-26T07:38:34;99860.34;;;9.25;80.40
4705;BME280;2366;51.332;6.610;2024-02-26T07:40:59;99857.28;;;9.44;80.50
4705;BME280;2366;51.332;6.610;2024-02-26T07:43:26;99862.16;;;9.37;80.63
4705;BME280;2366;51.332;6.610;2024-02-26T07:45:51;99862.97;;;9.51;80.24
4705;BME280;2366;51.332;6.610;2024-02-26T07:48:16;99869.31;;;9.74;79.74
4705;BME280;2366;51.332;6.610;2024-02-26T07:50:42;99872.91;;;9.34;80.04
4705;BME280;2366;51.332;6.610;2024-02-26T07:53:07;99879.81;;;9.11;80.88
4705;BME280;2366;51.332;6.610;2024-02-26T07:55:33;99875.66;;;8.94;81.46
4705;BME280;2366;51.332;6.610;2024-02-26T07:57:58;99889.66;;;9.09;81.23
4705;BME280;2366;51.332;6.610;2024-02-26T08:00:23;99887.00;;;9.22;80.74
4705;BME280;2366;51.332;6.610;2024-02-26T08:02:49;99891.66;;;9.05;81.16
4705;BME280;2366;51.332;6.610;2024-02-26T08:05:14;99895.13;;;9.06;82.00
4705;BME280;2366;51.332;6.610;2024-02-26T08:07:39;99896.00;;;9.07;81.95
4705;BME280;2366;51.332;6.610;2024-02-26T08:10:05;99892.97;;;8.73;82.40
4705;BME280;2366;51.332;6.610;2024-02-26T08:12:31;99897.28;;;8.74;83.25
4705;BME280;2366;51.332;6.610;2024-02-26T08:14:56;99908.13;;;8.96;82.15
4705;BME280;2366;51.332;6.610;2024-02-26T08:17:23;99911.16;;;8.77;83.04
4705;BME280;2366;51.332;6.610;2024-02-26T08:19:48;99913.94;;;9.01;82.31
4705;BME280;2366;51.332;6.610;2024-02-26T08:22:15;99912.28;;;9.00;82.14
4705;BME280;2366;51.332;6.610;2024-02-26T08:24:42;99915.09;;;8.97;81.90
4705;BME280;2366;51.332;6.610;2024-02-26T08:27:07;99906.13;;;9.13;81.60
4705;BME280;2366;51.332;6.610;2024-02-26T08:29:33;99917.59;;;9.13;81.79
4705;BME280;2366;51.332;6.610;2024-02-26T08:31:58;99921.50;;;9.33;81.07
4705;BME280;2366;51.332;6.610;2024-02-26T08:34:24;99915.91;;;9.51;80.89
4705;BME280;2366;51.332;6.610;2024-02-26T08:36:50;99925.94;;;9.58;80.19
4705;BME280;2366;51.332;6.610;2024-02-26T08:39:16;99931.78;;;9.51;81.13
4705;BME280;2366;51.332;6.610;2024-02-26T08:41:45;99925.19;;;9.56;81.88
4705;BME280;2366;51.332;6.610;2024-02-26T08:44:11;99929.97;;;9.64;80.43
4705;BME280;2366;51.332;6.610;2024-02-26T08:46:36;99929.13;;;9.76;80.41
4705;BME280;2366;51.332;6.610;2024-02-26T08:49:02;99930.72;;;9.53;80.24
4705;BME280;2366;51.332;6.610;2024-02-26T08:51:27;99941.81;;;9.71;80.58
4705;BME280;2366;51.332;6.610;2024-02-26T08:53:53;99953.47;;;9.81;79.95
4705;BME280;2366;51.332;6.610;2024-02-26T08:56:19;99957.34;;;9.88;79.34
4705;BME280;2366;51.332;6.610;2024-02-26T08:58:46;99966.56;;;9.32;79.93
4705;BME280;2366;51.332;6.610;2024-02-26T09:01:16;99971.56;;;9.62;80.14
4705;BME280;2366;51.332;6.610;2024-02-26T09:03:42;99957.91;;;9.81;80.03
4705;BME280;2366;51.332;6.610;2024-02-26T09:06:07;99967.31;;;9.98;79.28
4705;BME280;2366;51.332;6.610;2024-02-26T09:08:33;99973.88;;;10.05;79.30
4705;BME280;2366;51.332;6.610;2024-02-26T09:10:58;99975.88;;;10.01;79.57
4705;BME280;2366;51.332;6.610;2024-02-26T09:13:24;99970.16;;;9.95;79.29
4705;BME280;2366;51.332;6.610;2024-02-26T09:15:49;99972.53;;;9.74;79.74
4705;BME280;2366;51.332;6.610;2024-02-26T09:18:15;99968.50;;;9.68;79.75
4705;BME280;2366;51.332;6.610;2024-02-26T09:20:41;99977.50;;;9.65;79.50
4705;BME280;2366;51.332;6.610;2024-02-26T09:23:06;99984.19;;;9.45;80.31
4705;BME280;2366;51.332;6.610;2024-02-26T09:25:32;99989.56;;;9.44;81.04
4705;BME280;2366;51.332;6.610;2024-02-26T09:27:59;99975.78;;;9.77;80.45
4705;BME280;2366;51.332;6.610;2024-02-26T09:30:24;99977.78;;;9.86;79.92
4705;BME280;2366;51.332;6.610;2024-02-26T09:32:50;99983.41;;;9.95;79.39
4705;BME280;2366;51.332;6.610;2024-02-26T09:35:15;100004.59;;;9.69;79.97
4705;BME280;2366;51.332;6.610;2024-02-26T09:37:41;99995.06;;;9.79;79.86
4705;BME280;2366;51.332;6.610;2024-02-26T09:40:09;99997.72;;;9.92;79.56
4705;BME280;2366;51.332;6.610;2024-02-26T09:42:37;100006.31;;;9.83;79.98
4705;BME280;2366;51.332;6.610;2024-02-26T09:45:05;100007.03;;;9.85;80.12
4705;BME280;2366;51.332;6.610;2024-02-26T09:47:35;100009.28;;;9.78;80.36
4705;BME280;2366;51.332;6.610;2024-02-26T09:50:01;100017.72;;;9.96;79.37
4705;BME280;2366;51.332;6.610;2024-02-26T09:52:28;100024.84;;;9.96;80.02
4705;BME280;2366;51.332;6.610;2024-02-26T09:54:56;100023.69;;;9.87;79.66
4705;BME280;2366;51.332;6.610;2024-02-26T09:57:21;100028.00;;;10.01;79.54
4705;BME280;2366;51.332;6.610;2024-02-26T09:59:51;100031.41;;;10.03;79.80
4705;BME280;2366;51.332;6.610;2024-02-26T10:02:20;100039.56;;;10.00;79.24
4705;BME280;2366;51.332;6.610;2024-02-26T10:04:47;100041.47;;;9.72;79.62
4705;BME280;2366;51.332;6.610;2024-02-26T10:07:16;100038.19;;;9.94;80.10
4705;BME280;2366;51.332;6.610;2024-02-26T10:09:41;100044.22;;;9.83;79.92
4705;BME280;2366;51.332;6.610;2024-02-26T10:12:09;100049.09;;;9.90;80.32
4705;BME280;2366;51.332;6.610;2024-02-26T10:14:35;100041.66;;;9.95;80.31
4705;BME280;2366;51.332;6.610;2024-02-26T10:17:01;100048.44;;;9.99;80.29
4705;BME280;2366;51.332;6.610;2024-02-26T10:19:28;100057.78;;;9.92;79.84
4705;BME280;2366;51.332;6.610;2024-02-26T10:21:58;100062.22;;;10.04;80.28
4705;BME280;2366;51.332;6.610;2024-02-26T10:24:27;100060.50;;;9.77;80.72
4705;BME280;2366;51.332;6.610;2024-02-26T10:26:54;100061.34;;;9.78;80.94
4705;BME280;2366;51.332;6.610;2024-02-26T10:29:21;100071.53;;;9.97;79.92
4705;BME280;2366;51.332;6.610;2024-02-26T10:31:47;100075.56;;;10.02;80.00
4705;BME280;2366;51.332;6.610;2024-02-26T10:34:12;100066.34;;;9.82;80.03
4705;BME280;2366;51.332;6.610;2024-02-26T10:36:38;100072.78;;;9.65;81.02
4705;BME280;2366;51.332;6.610;2024-02-26T10:39:06;100086.13;;;9.64;81.01
4705;BME280;2366;51.332;6.610;2024-02-26T10:41:35;100086.03;;;9.65;81.04
4705;BME280;2366;51.332;6.610;2024-02-26T10:44:01;100088.16;;;9.86;80.90
4705;BME280;2366;51.332;6.610;2024-02-26T10:46:27;100095.19;;;10.00;80.38
4705;BME280;2366;51.332;6.610;2024-02-26T10:48:53;100098.03;;;10.22;80.07
4705;BME280;2366;51.332;6.610;2024-02-26T10:51:29;100098.53;;;10.27;79.94
4705;BME280;2366;51.332;6.610;2024-02-26T10:53:57;100101.22;;;10.40;79.14
4705;BME280;2366;51.332;6.610;2024-02-26T10:56:28;100105.25;;;10.46;79.48
4705;BME280;2366;51.332;6.610;2024-02-26T10:58:57;100111.22;;;10.37;79.38
4705;BME280;2366;51.332;6.610;2024-02-26T11:01:24;100105.22;;;10.20;79.13
4705;BME280;2366;51.332;6.610;2024-02-26T11:03:51;100114.66;;;10.12;80.39
4705;BME280;2366;51.332;6.610;2024-02-26T11:06:18;100114.88;;;10.34;79.76
4705;BME280;2366;51.332;6.610;2024-02-26T11:08:48;100119.69;;;10.29;79.86
4705;BME280;2366;51.332;6.610;2024-02-26T11:11:14;100110.97;;;10.40;79.22
4705;BME280;2366;51.332;6.610;2024-02-26T11:13:41;100119.34;;;10.34;79.12
4705;BME280;2366;51.332;6.610;2024-02-26T11:16:11;100118.94;;;10.40;79.30
4705;BME280;2366;51.332;6.610;2024-02-26T11:18:37;100133.00;;;10.27;79.06
4705;BME280;2366;51.332;6.610;2024-02-26T11:21:03;100129.72;;;10.24;79.61
4705;BME280;2366;51.332;6.610;2024-02-26T11:23:29;100130.03;;;10.32;79.16
4705;BME280;2366;51.332;6.610;2024-02-26T11:25:56;100138.72;;;10.47;79.50
4705;BME280;2366;51.332;6.610;2024-02-26T11:28:26;100136.97;;;10.47;79.32
4705;BME280;2366;51.332;6.610;2024-02-26T11:30:53;100140.44;;;10.48;79.58
4705;BME280;2366;51.332;6.610;2024-02-26T11:33:19;100139.78;;;10.57;78.79
4705;BME280;2366;51.332;6.610;2024-02-26T11:35:45;100135.63;;;10.79;79.00
4705;BME280;2366;51.332;6.610;2024-02-26T11:38:19;100153.69;;;10.74;78.71
4705;BME280;2366;51.332;6.610;2024-02-26T11:40:46;100140.53;;;10.59;79.41
4705;BME280;2366;51.332;6.610;2024-02-26T11:43:12;100139.78;;;10.57;79.07
4705;BME280;2366;51.332;6.610;2024-02-26T11:48:03;100146.59;;;10.61;80.05
4705;BME280;2366;51.332;6.610;2024-02-26T11:50:36;100143.16;;;10.85;79.10
4705;BME280;2366;51.332;6.610;2024-02-26T11:53:25;100146.50;;;11.00;78.95
4705;BME280;2366;51.332;6.610;2024-02-26T11:58:42;100145.22;;;11.05;79.31
4705;BME280;2366;51.332;6.610;2024-02-26T12:02:09;100152.91;;;10.84;78.56
4705;BME280;2366;51.332;6.610;2024-02-26T12:04:25;100148.97;;;10.90;78.95
4705;BME280;2366;51.332;6.610;2024-02-26T12:07:01;100157.13;;;11.00;79.34
4705;BME280;2366;51.332;6.610;2024-02-26T12:09:37;100157.28;;;10.73;78.92
4705;BME280;2366;51.332;6.610;2024-02-26T12:12:07;100151.84;;;10.87;79.70
4705;BME280;2366;51.332;6.610;2024-02-26T12:14:53;100163.41;;;11.23;78.88
4705;BME280;2366;51.332;6.610;2024-02-26T12:17:23;100170.91;;;11.05;78.83
4705;BME280;2366;51.332;6.610;2024-02-26T12:19:50;100167.13;;;10.83;79.97
4705;BME280;2366;51.332;6.610;2024-02-26T12:22:19;100159.91;;;10.85;79.06
4705;BME280;2366;51.332;6.610;2024-02-26T12:24:45;100163.97;;;10.78;79.51
4705;BME280;2366;51.332;6.610;2024-02-26T12:27:10;100168.06;;;10.95;79.96
4705;BME280;2366;51.332;6.610;2024-02-26T12:29:36;100167.34;;;10.80;79.21
4705;BME280;2366;51.332;6.610;2024-02-26T12:32:05;100168.19;;;10.81;79.75
4705;BME280;2366;51.332;6.610;2024-02-26T12:34:31;100183.25;;;10.93;79.39
4705;BME280;2366;51.332;6.610;2024-02-26T12:36:57;100179.69;;;11.05;79.23
4705;BME280;2366;51.332;6.610;2024-02-26T12:39:22;100179.16;;;11.13;79.62
4705;BME280;2366;51.332;6.610;2024-02-26T12:41:48;100184.56;;;11.12;78.87
4705;BME280;2366;51.332;6.610;2024-02-26T12:44:17;100180.84;;;11.14;78.90
4705;BME280;2366;51.332;6.610;2024-02-26T12:46:43;100186.84;;;11.29;78.91
4705;BME280;2366;51.332;6.610;2024-02-26T12:49:14;100190.88;;;11.35;78.84
4705;BME280;2366;51.332;6.610;2024-02-26T12:51:40;100196.91;;;11.00;79.45
4705;BME280;2366;51.332;6.610;2024-02-26T12:54:06;100198.22;;;11.18;79.35
4705;BME280;2366;51.332;6.610;2024-02-26T12:56:32;100206.59;;;11.25;78.85
4705;BME280;2366;51.332;6.610;2024-02-26T12:58:58;100202.69;;;11.18;78.80
4705;BME280;2366;51.332;6.610;2024-02-26T13:01:24;100212.81;;;11.00;77.93
4705;BME280;2366;51.332;6.610;2024-02-26T13:03:51;100226.28;;;11.09;78.83
4705;BME280;2366;51.332;6.610;2024-02-26T13:06:18;100222.69;;;11.10;79.35
4705;BME280;2366;51.332;6.610;2024-02-26T13:08:45;100222.22;;;11.17;79.29
4705;BME280;2366;51.332;6.610;2024-02-26T13:11:10;100228.09;;;11.09;79.04
4705;BME280;2366;51.332;6.610;2024-02-26T13:13:36;100228.28;;;11.06;79.35
4705;BME280;2366;51.332;6.610;2024-02-26T13:16:05;100230.53;;;10.99;79.04
4705;BME280;2366;51.332;6.610;2024-02-26T13:18:33;100243.00;;;11.23;79.71
4705;BME280;2366;51.332;6.610;2024-02-26T13:21:13;100249.34;;;11.33;79.21
4705;BME280;2366;51.332;6.610;2024-02-26T13:23:40;100249.59;;;11.30;79.20
4705;BME280;2366;51.332;6.610;2024-02-26T13:26:07;100245.16;;;11.18;79.09